SCVD/ZAL METAR and TAF weather

Enter ICAO airport designator
Station Type Date Time Source
SCVD METAR 2020/11/27 15:00 UTC NOAA

SCVD 271500Z 27006KT 230V310 9999 VCSH SCT015 BKN020 BKN060 14/12 Q1016


Station Type Date Time Source
SCVD Decoded METAR 2020/11/27 15:00 UTC NOAA

Valdivia, Chile (SCVD) 39-37S 073-05W
Nov 27, 2020 - 10:00 AM EST / 2020.11.27 1500 UTC
Wind: from the W (270 degrees) at 7 MPH (6 KT) (direction variable):0
Visibility: greater than 7 mile(s):0
Sky conditions: mostly cloudy
Weather: showers in the vicinity
Temperature: 57 F (14 C)
Dew Point: 53 F (12 C)
Relative Humidity: 87%
Pressure (altimeter): 30.00 in. Hg (1016 hPa)
ob: SCVD 271500Z 27006KT 230V310 9999 VCSH SCT015 BKN020 BKN060 14/12 Q1016
cycle: 15

Station Type Date Time Source
SCVD TAF 2020/11/27 12:00 UTC NOAA

TAF SCVD 271006Z 2712/2724 VRB03KT 9999 BKN020 TN08/2712Z TX17/2719Z
BECMG 2714/2716 33010KT BKN035

Example: see airport list